Georgia Highway — 7JCV — position and weather

sailwx.info

Track history (hours):
 
Tides and Currents Weather Stations Pressure Air Temp Water Temp Dewpoint Dewpoint Depression Visibility Wind Speed Wind Dir Waves Ship Positions

Georgia Highway

Last reported at 2014-Jul-16 08:32 UTC. Time now 2014-Jul-25 09:04 UTC.
Position N 36°48' W 075°45'.
Warning: this ship's position is 9 days out of date.

Length 199 m; draft 9 m.

Type: Cargo ship. MMSI: 432629000.

Date/timePositionNaut miles runAvg speedWind from/ knotsBaromVisibWave heightAir tempDewpointWater temp
2014-Jul-16 08:32N 36°48' W 075°45'1515.3
2014-Jul-16 07:32N 36°58' W 075°60'1616.4
2014-Jul-16 06:33N 37°12' W 076°09'8817.2
2014-Jul-16 01:25N 38°39' W 076°25'1517.5
2014-Jul-16 00:33N 38°54' W 076°24'1514.7
2014-Jul-15 23:33N 39°09' W 076°25'8 8.3
2014-Jul-15 22:34N 39°15' W 076°32'0 0.1
2014-Jul-15 21:32N 39°15' W 076°32'0 0.0
2014-Jul-15 20:32N 39°15' W 076°32'0 0.0
2014-Jul-15 19:32N 39°15' W 076°32'0 0.0
2014-Jul-15 18:32N 39°15' W 076°32'0 0.0
2014-Jul-15 17:32N 39°15' W 076°32'0 0.0
2014-Jul-15 16:32N 39°15' W 076°32'2 2.0
2014-Jul-15 15:33N 39°15' W 076°35'0 0.0
2014-Jul-15 14:33N 39°15' W 076°35'0 0.0
2014-Jul-15 13:33N 39°15' W 076°35'0 0.0
2014-Jul-15 12:33N 39°15' W 076°35'0 0.0
2014-Jul-15 11:33N 39°15' W 076°35'0 0.0
2014-Jul-15 10:33N 39°15' W 076°35'0 0.0
2014-Jul-15 09:33N 39°15' W 076°35'3 2.6
2014-Jul-15 08:33N 39°13' W 076°32'9 9.1
2014-Jul-15 07:34N 39°07' W 076°24'1414.0
2014-Jul-15 06:33N 38°53' W 076°24'1616.5
2014-Jul-15 05:33N 38°37' W 076°26'1917.1
2014-Jul-15 04:27N 38°19' W 076°18'5116.7
2014-Jul-15 01:23N 37°29' W 076°04'1516.9
2014-Jul-15 00:30N 37°14' W 076°08'1516.0
2014-Jul-14 23:33N 37°00' W 076°02'1210.8
2014-Jul-14 22:25N 36°52' W 075°50'20813.9
2014-Jul-14 07:27N 36°59' W 071°30'3116.1
2014-Jul-14 05:33N 37°04' W 070°52'1717.0
2014-Jul-14 04:33N 37°07' W 070°31'1917.3
2014-Jul-14 03:27N 37°11' W 070°07'13916.9
2014-Jul-13 19:14N 37°37' W 067°16'1116.0
2014-Jul-13 18:33N 37°39' W 067°02'  
2014-Jul-06 23:06N 50°24' W 001°27'1218.2
2014-Jul-06 22:25N 50°30' W 001°10'1214.1
2014-Jul-06 21:33N 50°40' W 000°58'1111.2
2014-Jul-06 20:33N 50°46' W 001°13'9 8.7
2014-Jul-06 19:34N 50°52' W 001°22'2 1.6
2014-Jul-06 18:33N 50°53' W 001°24'0 0.0
2014-Jul-06 17:33N 50°53' W 001°24'0 0.0
2014-Jul-06 16:33N 50°53' W 001°24'0 0.0
2014-Jul-06 15:33N 50°53' W 001°24'0 0.0
2014-Jul-06 14:33N 50°53' W 001°24'0 0.0
2014-Jul-06 13:33N 50°53' W 001°24'0 0.0
2014-Jul-06 12:33N 50°53' W 001°24'0 0.0
2014-Jul-06 11:33N 50°53' W 001°24'0 0.0
2014-Jul-06 10:33N 50°53' W 001°24'0 0.0
2014-Jul-06 09:33N 50°53' W 001°24'0 0.0
2014-Jul-06 08:33N 50°53' W 001°24'  
Track history (hours):
 
Tides and Currents Weather Stations Pressure Air Temp Water Temp Dewpoint Dewpoint Depression Visibility Wind Speed Wind Dir Waves Ship Positions

Georgia Highway

Last reported at 2014-Jul-16 08:32 UTC. Time now 2014-Jul-25 09:04 UTC.
Position N 36°48' W 075°45'.
Warning: this ship's position is 9 days out of date.

Length 199 m; draft 9 m.

Type: Cargo ship. MMSI: 432629000.

Date/timePositionNaut miles runAvg speedWind from/ knotsBaromVisibWave heightAir tempDewpointWater temp
2014-Jul-16 08:32N 36°48' W 075°45'1515.3
2014-Jul-16 07:32N 36°58' W 075°60'1616.4
2014-Jul-16 06:33N 37°12' W 076°09'8817.2
2014-Jul-16 01:25N 38°39' W 076°25'1517.5
2014-Jul-16 00:33N 38°54' W 076°24'1514.7
2014-Jul-15 23:33N 39°09' W 076°25'8 8.3
2014-Jul-15 22:34N 39°15' W 076°32'0 0.1
2014-Jul-15 21:32N 39°15' W 076°32'0 0.0
2014-Jul-15 20:32N 39°15' W 076°32'0 0.0
2014-Jul-15 19:32N 39°15' W 076°32'0 0.0
2014-Jul-15 18:32N 39°15' W 076°32'0 0.0
2014-Jul-15 17:32N 39°15' W 076°32'0 0.0
2014-Jul-15 16:32N 39°15' W 076°32'2 2.0
2014-Jul-15 15:33N 39°15' W 076°35'0 0.0
2014-Jul-15 14:33N 39°15' W 076°35'0 0.0
2014-Jul-15 13:33N 39°15' W 076°35'0 0.0
2014-Jul-15 12:33N 39°15' W 076°35'0 0.0
2014-Jul-15 11:33N 39°15' W 076°35'0 0.0
2014-Jul-15 10:33N 39°15' W 076°35'0 0.0
2014-Jul-15 09:33N 39°15' W 076°35'3 2.6
2014-Jul-15 08:33N 39°13' W 076°32'9 9.1
2014-Jul-15 07:34N 39°07' W 076°24'1414.0
2014-Jul-15 06:33N 38°53' W 076°24'1616.5
2014-Jul-15 05:33N 38°37' W 076°26'1917.1
2014-Jul-15 04:27N 38°19' W 076°18'5116.7
2014-Jul-15 01:23N 37°29' W 076°04'1516.9
2014-Jul-15 00:30N 37°14' W 076°08'1516.0
2014-Jul-14 23:33N 37°00' W 076°02'1210.8
2014-Jul-14 22:25N 36°52' W 075°50'20813.9
2014-Jul-14 07:27N 36°59' W 071°30'3116.1
2014-Jul-14 05:33N 37°04' W 070°52'1717.0
2014-Jul-14 04:33N 37°07' W 070°31'1917.3
2014-Jul-14 03:27N 37°11' W 070°07'13916.9
2014-Jul-13 19:14N 37°37' W 067°16'1116.0
2014-Jul-13 18:33N 37°39' W 067°02'  
2014-Jul-06 23:06N 50°24' W 001°27'1218.2
2014-Jul-06 22:25N 50°30' W 001°10'1214.1
2014-Jul-06 21:33N 50°40' W 000°58'1111.2
2014-Jul-06 20:33N 50°46' W 001°13'9 8.7
2014-Jul-06 19:34N 50°52' W 001°22'2 1.6
2014-Jul-06 18:33N 50°53' W 001°24'0 0.0
2014-Jul-06 17:33N 50°53' W 001°24'0 0.0
2014-Jul-06 16:33N 50°53' W 001°24'0 0.0
2014-Jul-06 15:33N 50°53' W 001°24'0 0.0
2014-Jul-06 14:33N 50°53' W 001°24'0 0.0
2014-Jul-06 13:33N 50°53' W 001°24'0 0.0
2014-Jul-06 12:33N 50°53' W 001°24'0 0.0
2014-Jul-06 11:33N 50°53' W 001°24'0 0.0
2014-Jul-06 10:33N 50°53' W 001°24'0 0.0
2014-Jul-06 09:33N 50°53' W 001°24'0 0.0
2014-Jul-06 08:33N 50°53' W 001°24'  

Dump ship's entire track history